createdAt,value
2022-07-28T00:02:42.002Z,34.30
2022-07-28T00:07:45.364Z,34.40
2022-07-28T00:12:48.398Z,34.50
2022-07-28T00:17:52.649Z,34.50
2022-07-28T00:22:55.594Z,34.70
2022-07-28T00:27:58.511Z,34.60
2022-07-28T00:33:02.763Z,34.80
2022-07-28T00:38:07.625Z,34.80
2022-07-28T00:43:14.565Z,34.70
2022-07-28T00:48:18.813Z,34.80
2022-07-28T00:53:22.348Z,35.00
2022-07-28T00:58:27.544Z,35.00
2022-07-28T01:03:33.192Z,35.10
2022-07-28T01:08:48.862Z,35.30
2022-07-28T01:13:59.886Z,35.60
2022-07-28T01:19:11.498Z,35.60
2022-07-28T01:24:24.035Z,35.60
2022-07-28T01:29:46.327Z,35.70
2022-07-28T01:34:56.968Z,36.70
2022-07-28T01:40:03.822Z,35.70
2022-07-28T01:45:08.871Z,35.70
2022-07-28T01:50:15.540Z,35.70
2022-07-28T01:55:21.298Z,35.90
2022-07-28T02:00:27.748Z,35.90
2022-07-28T02:05:34.063Z,35.90
2022-07-28T02:10:38.063Z,36.10
2022-07-28T02:15:42.666Z,36.00
2022-07-28T02:20:47.193Z,36.10
2022-07-28T02:25:51.302Z,36.20
2022-07-28T02:30:59.843Z,36.20
2022-07-28T02:36:11.079Z,36.50
2022-07-28T02:41:23.383Z,36.60
2022-07-28T02:46:30.125Z,36.60
2022-07-28T02:51:36.889Z,36.70
2022-07-28T02:56:42.444Z,36.80
2022-07-28T03:01:57.697Z,36.80
2022-07-28T03:07:02.106Z,36.70
2022-07-28T03:12:05.448Z,36.80
2022-07-28T03:17:08.973Z,36.80
2022-07-28T03:22:13.681Z,36.80
2022-07-28T03:27:22.595Z,36.90
2022-07-28T03:32:28.080Z,37.00
2022-07-28T03:37:36.925Z,37.10
2022-07-28T03:42:41.795Z,37.10
2022-07-28T03:47:52.490Z,37.10
2022-07-28T03:52:58.420Z,37.50
2022-07-28T03:58:01.496Z,37.20
2022-07-28T04:03:04.469Z,37.10
2022-07-28T04:08:28.728Z,37.20
2022-07-28T04:13:32.880Z,37.30
2022-07-28T04:18:36.114Z,37.30
2022-07-28T04:23:40.536Z,37.30
2022-07-28T04:28:43.441Z,37.50
2022-07-28T04:33:46.769Z,37.50
2022-07-28T04:38:51.087Z,37.70
2022-07-28T04:43:54.028Z,38.00
2022-07-28T04:48:57.490Z,38.00
2022-07-28T04:54:01.802Z,38.10
2022-07-28T04:59:05.061Z,38.50
2022-07-28T05:04:08.593Z,38.50
2022-07-28T05:09:12.972Z,38.60
2022-07-28T05:14:17.566Z,38.70
2022-07-28T05:19:20.585Z,38.80
2022-07-28T05:24:25.013Z,38.70
2022-07-28T05:29:47.435Z,39.00
2022-07-28T05:34:51.088Z,38.90
2022-07-28T05:39:55.560Z,39.00
2022-07-28T05:44:58.932Z,39.40
2022-07-28T05:50:04.166Z,39.40
2022-07-28T05:55:09.925Z,39.50
2022-07-28T06:00:15.459Z,39.90
2022-07-28T06:05:20.623Z,39.90
2022-07-28T06:10:27.179Z,39.90
2022-07-28T06:15:30.194Z,40.10
2022-07-28T06:20:33.316Z,40.10
2022-07-28T06:25:37.678Z,40.20
2022-07-28T06:30:40.709Z,40.40
2022-07-28T06:35:51.061Z,40.50
2022-07-28T06:40:55.950Z,40.50
2022-07-28T06:45:58.858Z,40.60
2022-07-28T06:51:02.376Z,40.60
2022-07-28T06:56:07.579Z,40.90
2022-07-28T07:01:17.225Z,40.70
2022-07-28T07:06:20.225Z,40.70
2022-07-28T07:11:24.826Z,40.60
2022-07-28T07:16:27.916Z,40.40
2022-07-28T07:21:30.848Z,40.30
2022-07-28T07:26:35.105Z,40.30
2022-07-28T07:31:40.781Z,40.20
2022-07-28T07:36:43.877Z,40.10
2022-07-28T07:41:48.174Z,40.20
2022-07-28T07:46:51.256Z,40.10
2022-07-28T07:51:54.236Z,40.10
2022-07-28T07:56:58.939Z,40.00
2022-07-28T08:02:02.268Z,40.00
2022-07-28T08:07:05.691Z,39.70
2022-07-28T08:12:10.602Z,39.60
2022-07-28T08:17:13.530Z,39.60
2022-07-28T08:22:16.615Z,39.50
2022-07-28T08:27:20.985Z,39.40
2022-07-28T08:32:23.916Z,39.40
2022-07-28T08:37:26.897Z,39.20
2022-07-28T08:42:39.842Z,39.20
2022-07-28T08:48:07.312Z,39.10
2022-07-28T08:53:08.544Z,39.10
2022-07-28T08:58:13.517Z,38.90
2022-07-28T09:03:18.438Z,38.70
2022-07-28T09:08:21.578Z,39.30
2022-07-28T09:13:25.917Z,38.70
2022-07-28T09:18:28.890Z,38.50
2022-07-28T09:23:44.598Z,38.30
2022-07-28T09:28:50.818Z,37.80
2022-07-28T09:33:55.517Z,37.80
2022-07-28T09:38:59.214Z,38.20
2022-07-28T09:44:03.566Z,38.00
2022-07-28T09:49:06.767Z,37.70
2022-07-28T09:54:11.783Z,37.50
2022-07-28T09:59:18.086Z,37.10
2022-07-28T10:04:33.116Z,37.50
2022-07-28T10:09:36.461Z,36.90
2022-07-28T10:14:41.028Z,37.00
2022-07-28T10:19:44.015Z,36.70
2022-07-28T10:24:52.717Z,36.70
2022-07-28T10:29:59.930Z,36.60
2022-07-28T10:35:06.069Z,36.30
2022-07-28T10:40:11.556Z,36.10
2022-07-28T10:45:16.748Z,36.10
2022-07-28T10:50:20.704Z,35.90
2022-07-28T10:55:32.237Z,35.70
2022-07-28T11:00:55.468Z,35.10
2022-07-28T11:05:59.382Z,35.40
2022-07-28T11:11:08.163Z,35.70
2022-07-28T11:16:24.782Z,35.60
2022-07-28T11:21:27.773Z,34.60
2022-07-28T11:26:36.930Z,34.80
2022-07-28T11:32:01.163Z,34.80
2022-07-28T11:37:06.041Z,34.10
2022-07-28T11:42:26.082Z,34.90
2022-07-28T11:47:31.725Z,34.00
2022-07-28T11:52:34.716Z,34.10
2022-07-28T11:57:41.324Z,33.90
2022-07-28T12:02:45.642Z,33.40
2022-07-28T12:07:50.663Z,33.30
2022-07-28T12:12:54.662Z,33.20
2022-07-28T12:18:00.154Z,33.00
2022-07-28T12:23:05.949Z,33.30
2022-07-28T12:28:16.678Z,33.00
2022-07-28T12:33:29.150Z,32.60
2022-07-28T12:38:33.018Z,32.90
2022-07-28T12:43:35.957Z,33.00
2022-07-28T12:48:42.605Z,32.30
2022-07-28T12:53:52.013Z,31.90
2022-07-28T12:59:06.039Z,31.80
2022-07-28T13:04:10.362Z,30.80
2022-07-28T13:09:23.877Z,32.00
2022-07-28T13:14:43.673Z,31.50
2022-07-28T13:19:48.716Z,31.60
2022-07-28T13:24:51.645Z,31.80
2022-07-28T13:29:55.324Z,31.90
2022-07-28T13:34:59.633Z,31.90
2022-07-28T13:40:02.714Z,31.80
2022-07-28T13:45:06.152Z,31.90
2022-07-28T13:50:11.280Z,31.80
2022-07-28T13:55:17.821Z,31.70
2022-07-28T14:00:25.690Z,31.90
2022-07-28T14:05:32.279Z,31.90
2022-07-28T14:10:36.719Z,31.70
2022-07-28T14:15:40.102Z,31.70
2022-07-28T14:20:44.385Z,31.70
2022-07-28T14:25:49.537Z,31.70
2022-07-28T14:30:54.153Z,31.70
2022-07-28T14:35:58.471Z,32.10
2022-07-28T14:41:01.401Z,31.90
2022-07-28T14:46:14.567Z,31.80
2022-07-28T14:51:25.632Z,31.40
2022-07-28T14:56:28.623Z,31.20
2022-07-28T15:01:36.106Z,31.10
2022-07-28T15:06:40.777Z,30.80
2022-07-28T15:11:46.230Z,30.70
2022-07-28T15:16:49.141Z,30.80
2022-07-28T15:21:53.466Z,30.10
2022-07-28T15:26:56.409Z,30.20
2022-07-28T15:31:59.570Z,30.30
2022-07-28T15:37:04.355Z,30.40
2022-07-28T15:42:07.382Z,30.30
2022-07-28T15:47:10.338Z,30.30
2022-07-28T15:52:14.984Z,30.40
2022-07-28T15:57:19.647Z,30.40
2022-07-28T16:02:22.788Z,30.40
2022-07-28T16:07:29.355Z,31.10
2022-07-28T16:12:33.329Z,30.50
2022-07-28T16:17:37.221Z,30.70
2022-07-28T16:22:41.536Z,30.80
2022-07-28T16:27:44.706Z,30.50
2022-07-28T16:32:48.154Z,30.40
2022-07-28T16:37:52.447Z,30.30
2022-07-28T16:42:56.506Z,30.10
2022-07-28T16:48:00.286Z,29.80
2022-07-28T16:53:06.853Z,29.70
2022-07-28T16:58:09.892Z,29.70
2022-07-28T17:03:12.832Z,29.80
2022-07-28T17:08:17.138Z,29.90
2022-07-28T17:13:21.324Z,29.90
2022-07-28T17:18:24.297Z,29.90
2022-07-28T17:23:28.601Z,29.90
2022-07-28T17:28:32.591Z,29.80
2022-07-28T17:33:35.909Z,29.90
2022-07-28T17:38:40.193Z,30.00
2022-07-28T17:43:45.646Z,29.70
2022-07-28T17:48:48.900Z,29.70
2022-07-28T17:53:55.568Z,29.70
2022-07-28T17:58:58.737Z,29.80
2022-07-28T18:04:01.779Z,29.80
2022-07-28T18:09:08.609Z,29.90
2022-07-28T18:14:11.625Z,29.90
2022-07-28T18:19:14.574Z,30.00
2022-07-28T18:24:21.780Z,30.00
2022-07-28T18:29:26.004Z,30.00
2022-07-28T18:34:41.660Z,30.10
2022-07-28T18:39:45.941Z,30.00
2022-07-28T18:44:48.863Z,29.70
2022-07-28T18:49:51.893Z,29.80
2022-07-28T18:54:56.359Z,29.90
2022-07-28T18:59:59.563Z,29.90
2022-07-28T19:05:02.552Z,29.90
2022-07-28T19:10:09.481Z,30.00
2022-07-28T19:15:12.432Z,30.00
2022-07-28T19:20:16.752Z,30.10
2022-07-28T19:25:22.693Z,30.10
2022-07-28T19:30:25.969Z,30.00
2022-07-28T19:35:29.162Z,30.00
2022-07-28T19:40:33.495Z,30.10
2022-07-28T19:45:36.499Z,30.10
2022-07-28T19:50:40.915Z,30.30
2022-07-28T19:55:50.720Z,30.40
2022-07-28T20:00:56.499Z,30.60
2022-07-28T20:05:59.882Z,30.60
2022-07-28T20:11:04.240Z,30.20
2022-07-28T20:16:07.538Z,30.30
2022-07-28T20:21:10.521Z,30.40
2022-07-28T20:26:15.116Z,30.50
2022-07-28T20:31:18.972Z,30.60
2022-07-28T20:36:25.069Z,30.70
2022-07-28T20:41:33.672Z,30.90
2022-07-28T20:46:36.598Z,31.00
2022-07-28T20:51:39.575Z,31.10
2022-07-28T20:56:49.662Z,30.80
2022-07-28T21:01:52.901Z,30.90
2022-07-28T21:07:01.620Z,31.00
2022-07-28T21:12:07.880Z,31.00
2022-07-28T21:17:10.976Z,31.20
2022-07-28T21:22:13.987Z,31.20
2022-07-28T21:27:20.015Z,31.30
2022-07-28T21:32:22.912Z,31.50
2022-07-28T21:37:25.827Z,31.40
2022-07-28T21:42:30.097Z,31.50
2022-07-28T21:47:34.147Z,31.60
2022-07-28T21:52:37.386Z,31.70
2022-07-28T21:57:41.875Z,31.80
2022-07-28T22:02:44.788Z,32.20
2022-07-28T22:07:48.266Z,32.20
2022-07-28T22:12:52.623Z,32.40
2022-07-28T22:17:55.541Z,32.50
2022-07-28T22:22:58.446Z,32.40
2022-07-28T22:28:02.793Z,32.40
2022-07-28T22:33:06.014Z,32.50
2022-07-28T22:38:08.944Z,32.40
2022-07-28T22:43:13.317Z,32.50
2022-07-28T22:48:16.229Z,32.60
2022-07-28T22:53:19.144Z,32.50
2022-07-28T22:58:23.415Z,32.50
2022-07-28T23:03:26.429Z,32.70
2022-07-28T23:08:29.546Z,32.80
2022-07-28T23:13:33.990Z,32.80
2022-07-28T23:18:39.104Z,33.00
2022-07-28T23:23:42.139Z,33.10
2022-07-28T23:28:46.376Z,33.10
2022-07-28T23:33:55.830Z,33.20
2022-07-28T23:39:00.634Z,33.10
2022-07-28T23:44:05.393Z,33.10
2022-07-28T23:49:08.423Z,33.10
2022-07-28T23:54:14.562Z,33.10
2022-07-28T23:59:19.187Z,33.10
